Time;durP1;ratioP1;P1;durP2;ratioP2;P2;SDS_P1;SDS_P2;PMS_P1;PMS_P2;Temp;Humidity;BMP_temperature;BMP_pressure;BME280_temperature;BME280_humidity;BME280_pressure;Samples;Min_cycle;Max_cycle;Signal;HPM_P1;HPM_P2
2022/06/24 00:01:29;;;;;;;6.77;6.13;;;21.70;69.60;;;;;;5134781;27;20446;-75
2022/06/24 00:03:57;;;;;;;6.90;6.33;;;21.60;69.60;;;;;;5136245;27;20492;-76
2022/06/24 00:06:41;;;;;;;6.43;5.67;;;21.60;69.80;;;;;;5117130;28;20446;-76
2022/06/24 00:09:13;;;;;;;6.60;6.10;;;21.50;70.00;;;;;;5116815;28;20504;-76
2022/06/24 00:11:41;;;;;;;6.23;5.70;;;21.50;70.10;;;;;;5134836;27;20935;-76
2022/06/24 00:14:12;;;;;;;6.37;5.87;;;21.40;70.10;;;;;;5116201;28;20939;-75
2022/06/24 00:16:57;;;;;;;7.03;6.43;;;21.40;70.30;;;;;;5134845;28;20415;-76
2022/06/24 00:19:26;;;;;;;6.33;5.87;;;21.40;70.50;;;;;;5134881;28;20840;-77
2022/06/24 00:22:06;;;;;;;5.40;5.00;;;21.30;70.50;;;;;;5115994;28;20439;-76
2022/06/24 00:24:37;;;;;;;6.40;5.80;;;21.20;70.70;;;;;;5134815;28;20414;-75
2022/06/24 00:27:17;;;;;;;6.13;5.63;;;21.20;70.90;;;;;;5134927;28;20764;-77
2022/06/24 00:29:46;;;;;;;7.00;6.30;;;21.10;71.10;;;;;;5134688;28;20493;-76
2022/06/24 00:32:15;;;;;;;6.20;5.70;;;21.00;71.10;;;;;;5135197;28;20517;-75
2022/06/24 00:34:43;;;;;;;7.40;5.80;;;21.00;71.30;;;;;;5116376;28;20450;-76
2022/06/24 00:37:28;;;;;;;5.77;5.23;;;20.90;71.40;;;;;;5134577;28;20546;-76
2022/06/24 00:40:19;;;;;;;6.27;5.77;;;20.90;71.80;;;;;;5145236;28;20413;-76
2022/06/24 00:42:48;;;;;;;5.77;5.27;;;20.80;71.80;;;;;;5154000;27;20414;-76
2022/06/24 00:45:25;;;;;;;6.17;5.57;;;20.70;71.80;;;;;;5137231;27;20456;-76
2022/06/24 00:47:56;;;;;;;6.40;5.93;;;20.70;72.00;;;;;;5120569;27;20519;-77
2022/06/24 00:50:27;;;;;;;6.67;6.07;;;20.70;72.10;;;;;;5138925;27;20414;-76
2022/06/24 00:52:57;;;;;;;6.27;5.87;;;20.60;72.30;;;;;;5119820;27;20462;-75
2022/06/24 00:55:29;;;;;;;6.30;5.77;;;20.60;72.50;;;;;;5139349;27;20438;-77
2022/06/24 00:57:58;;;;;;;6.93;6.30;;;20.60;72.70;;;;;;5138809;27;20555;-77
2022/06/24 01:00:28;;;;;;;6.50;6.00;;;20.50;72.70;;;;;;5138239;27;20458;-77
2022/06/24 01:03:00;;;;;;;6.30;5.70;;;20.50;72.90;;;;;;5137982;27;20442;-76
2022/06/24 01:05:29;;;;;;;6.93;6.33;;;20.40;73.60;;;;;;5120193;27;20555;-75
2022/06/24 01:07:57;;;;;;;6.70;6.20;;;20.40;73.20;;;;;;5137797;27;20510;-76
2022/06/24 01:10:27;;;;;;;8.40;7.60;;;20.30;74.00;;;;;;5138159;27;20802;-76
2022/06/24 01:12:55;;;;;;;6.57;5.97;;;20.30;73.60;;;;;;5138339;27;20466;-76
2022/06/24 01:15:23;;;;;;;6.00;5.50;;;20.20;73.70;;;;;;5137600;27;20434;-76
2022/06/24 01:17:52;;;;;;;5.70;5.13;;;20.20;73.90;;;;;;5137964;27;20458;-78
2022/06/24 01:20:20;;;;;;;5.73;5.30;;;20.20;74.10;;;;;;5137713;27;20832;-76
2022/06/24 01:22:50;;;;;;;6.17;5.77;;;20.10;74.10;;;;;;5119029;27;20442;-76
2022/06/24 01:25:18;;;;;;;6.20;5.70;;;20.10;74.30;;;;;;5138208;27;20431;-76
2022/06/24 01:27:46;;;;;;;6.17;5.67;;;20.10;74.40;;;;;;5137790;27;20462;-76
2022/06/24 01:30:14;;;;;;;6.30;5.80;;;20.00;74.50;;;;;;5137417;27;20920;-76
2022/06/24 01:32:43;;;;;;;6.17;5.50;;;20.00;74.60;;;;;;5118571;27;20470;-76
2022/06/24 01:35:13;;;;;;;6.63;5.97;;;20.00;74.80;;;;;;5137089;27;20433;-77
2022/06/24 01:37:42;;;;;;;6.57;6.07;;;19.90;74.80;;;;;;5137191;27;20557;-77
2022/06/24 01:40:13;;;;;;;7.13;5.63;;;19.90;75.00;;;;;;5137571;27;20529;-76
2022/06/24 01:42:41;;;;;;;5.90;5.50;;;19.90;75.10;;;;;;5138474;27;20417;-76
2022/06/24 01:45:10;;;;;;;6.67;6.17;;;19.80;75.20;;;;;;5119342;27;20453;-77
2022/06/24 01:47:38;;;;;;;7.77;6.13;;;19.80;75.30;;;;;;5118908;27;20470;-76
2022/06/24 01:50:07;;;;;;;6.70;6.20;;;19.80;75.60;;;;;;5118792;27;20442;-76
2022/06/24 01:52:35;;;;;;;7.00;6.40;;;19.80;75.70;;;;;;5123044;27;20466;-78
2022/06/24 01:55:05;;;;;;;5.70;5.30;;;19.70;75.80;;;;;;5137098;27;20430;-77
2022/06/24 01:57:35;;;;;;;6.13;5.63;;;19.70;75.90;;;;;;5138116;27;20511;-77
2022/06/24 02:00:04;;;;;;;6.50;5.90;;;19.70;76.10;;;;;;5137517;27;20431;-77
2022/06/24 02:02:33;;;;;;;7.07;6.47;;;19.70;76.20;;;;;;5137227;27;20442;-76
2022/06/24 02:05:03;;;;;;;7.27;6.67;;;19.70;76.30;;;;;;5136960;27;20422;-75
2022/06/24 02:07:31;;;;;;;6.40;6.00;;;19.70;76.50;;;;;;5136695;27;20503;-75
2022/06/24 02:15:34;;;;;;;6.50;6.00;;;19.60;76.70;;;;;;5136809;27;20407;-77
2022/06/24 02:18:02;;;;;;;7.53;6.40;;;19.60;76.70;;;;;;5136278;27;20489;-76
2022/06/24 02:20:32;;;;;;;6.60;6.00;;;19.60;76.90;;;;;;5136776;27;20449;-77
2022/06/24 02:23:00;;;;;;;6.00;5.40;;;19.50;76.90;;;;;;5136398;27;20434;-77
2022/06/24 02:25:28;;;;;;;6.60;6.10;;;19.50;77.10;;;;;;5136662;27;20434;-76
2022/06/24 02:27:57;;;;;;;6.80;6.30;;;19.50;77.20;;;;;;5117525;27;20455;-75
2022/06/24 02:30:27;;;;;;;7.30;6.67;;;19.50;78.00;;;;;;5136009;27;20529;-75
2022/06/24 02:32:55;;;;;;;7.73;7.13;;;19.40;77.40;;;;;;5117683;27;20545;-76
2022/06/24 02:35:23;;;;;;;6.97;6.27;;;19.40;77.60;;;;;;5117752;27;20442;-75
2022/06/24 02:37:51;;;;;;;6.70;6.10;;;19.40;77.70;;;;;;5135667;27;20486;-76
2022/06/24 02:43:13;;;;;;;6.63;6.13;;;19.30;77.80;;;;;;5117529;27;20427;-76
2022/06/24 02:45:41;;;;;;;6.73;6.23;;;19.30;77.90;;;;;;5117844;27;20426;-77
2022/06/24 02:48:09;;;;;;;7.20;6.50;;;19.30;78.00;;;;;;5136070;27;20455;-76
2022/06/24 02:50:42;;;;;;;6.33;5.83;;;19.20;78.00;;;;;;5135908;27;20529;-77
2022/06/24 02:53:14;;;;;;;6.00;5.50;;;19.20;78.20;;;;;;5117234;27;20462;-76
2022/06/24 02:55:43;;;;;;;7.57;6.90;;;19.10;78.20;;;;;;5135644;27;20434;-77
2022/06/24 02:58:13;;;;;;;6.40;5.93;;;19.10;78.30;;;;;;5135487;27;20814;-76
2022/06/24 03:00:42;;;;;;;7.70;6.87;;;19.10;78.50;;;;;;5135549;27;20434;-75
2022/06/24 03:03:11;;;;;;;6.77;6.27;;;19.10;78.60;;;;;;5117411;27;20449;-77
2022/06/24 03:05:40;;;;;;;7.30;6.60;;;19.10;78.80;;;;;;5135461;27;20466;-76
2022/06/24 03:08:09;;;;;;;5.70;5.27;;;19.10;79.00;;;;;;5136233;27;20466;-77
2022/06/24 03:10:37;;;;;;;7.30;6.70;;;19.10;79.10;;;;;;5135990;27;20434;-77
2022/06/24 03:13:05;;;;;;;7.13;6.63;;;19.10;79.20;;;;;;5135561;27;20466;-76
2022/06/24 03:15:35;;;;;;;7.17;6.67;;;19.10;79.30;;;;;;5135953;27;20461;-77
2022/06/24 03:18:03;;;;;;;7.33;6.73;;;19.10;79.40;;;;;;5136580;27;20480;-77
2022/06/24 03:20:32;;;;;;;8.20;7.60;;;19.10;79.50;;;;;;5117840;27;20443;-77
2022/06/24 03:23:00;;;;;;;7.57;6.87;;;19.10;79.60;;;;;;5117575;27;20445;-76
2022/06/24 03:25:28;;;;;;;6.87;6.23;;;19.10;79.70;;;;;;5134919;27;20438;-76
2022/06/24 03:27:56;;;;;;;7.50;6.90;;;19.10;79.80;;;;;;5116364;27;20918;-76
2022/06/24 03:30:25;;;;;;;8.57;7.80;;;19.10;79.80;;;;;;5116631;28;20435;-76
2022/06/24 03:32:54;;;;;;;7.70;7.00;;;19.10;79.90;;;;;;5116539;27;20446;-76
2022/06/24 03:35:22;;;;;;;7.50;7.00;;;19.10;80.00;;;;;;5116320;27;20449;-76
2022/06/24 03:37:50;;;;;;;7.57;6.97;;;19.10;80.00;;;;;;5134671;27;20462;-76
2022/06/24 03:40:19;;;;;;;7.33;6.73;;;19.10;80.10;;;;;;5135093;27;20566;-75
2022/06/24 03:42:47;;;;;;;8.00;7.30;;;19.10;80.20;;;;;;5116280;27;20430;-75
2022/06/24 03:45:15;;;;;;;6.63;6.13;;;19.10;80.20;;;;;;5116392;28;20541;-76
2022/06/24 03:47:43;;;;;;;7.47;6.87;;;19.10;80.30;;;;;;5135065;27;20812;-76
2022/06/24 03:50:12;;;;;;;8.30;7.43;;;19.10;80.50;;;;;;5134793;27;20477;-76
2022/06/24 03:52:40;;;;;;;8.70;7.90;;;19.20;80.60;;;;;;5135764;27;20465;-78
2022/06/24 03:55:09;;;;;;;7.57;6.87;;;19.20;80.70;;;;;;5134817;27;20978;-76
2022/06/24 03:57:38;;;;;;;8.50;7.70;;;19.20;80.70;;;;;;5116047;27;20462;-75
2022/06/24 04:00:09;;;;;;;8.03;7.33;;;19.30;80.90;;;;;;5134856;27;20529;-78
2022/06/24 04:02:40;;;;;;;6.77;6.23;;;19.30;81.00;;;;;;5116097;27;20894;-76
2022/06/24 04:05:15;;;;;;;6.53;6.03;;;19.30;81.00;;;;;;5134703;27;20474;-76
2022/06/24 04:07:44;;;;;;;7.20;6.60;;;19.40;81.20;;;;;;5116444;27;20464;-76
2022/06/24 04:10:12;;;;;;;7.73;6.93;;;19.40;81.10;;;;;;5134638;27;20786;-77
2022/06/24 04:12:40;;;;;;;6.77;6.27;;;19.40;81.20;;;;;;5134526;27;20461;-76
2022/06/24 04:15:15;;;;;;;6.87;6.23;;;19.50;81.30;;;;;;5134454;28;20488;-77
2022/06/24 04:17:44;;;;;;;7.30;6.63;;;19.50;81.40;;;;;;5138153;27;20461;-76
2022/06/24 04:20:15;;;;;;;7.40;6.70;;;19.50;82.10;;;;;;5142187;27;20446;-75
2022/06/24 04:22:45;;;;;;;6.40;6.00;;;19.60;81.60;;;;;;5122925;27;20445;-78
2022/06/24 04:25:15;;;;;;;6.97;6.37;;;19.60;82.30;;;;;;5141663;27;20480;-77
2022/06/24 04:27:44;;;;;;;8.83;8.17;;;19.70;81.90;;;;;;5141264;27;20490;-76
2022/06/24 04:30:13;;;;;;;9.47;8.57;;;19.70;82.00;;;;;;5141004;27;20533;-76
2022/06/24 04:32:41;;;;;;;6.70;6.10;;;19.80;82.20;;;;;;5122669;27;20450;-76
2022/06/24 04:35:12;;;;;;;6.60;6.10;;;19.80;82.30;;;;;;5122714;27;21028;-78
2022/06/24 04:37:43;;;;;;;6.67;6.17;;;19.90;82.40;;;;;;5122765;27;20462;-76
2022/06/24 04:40:13;;;;;;;6.77;6.13;;;19.90;82.50;;;;;;5141051;27;20900;-76
2022/06/24 04:42:41;;;;;;;7.97;7.27;;;19.90;82.50;;;;;;5142212;27;20414;-76
2022/06/24 04:45:10;;;;;;;7.73;7.13;;;19.90;82.50;;;;;;5122617;27;20434;-76
2022/06/24 04:47:39;;;;;;;9.17;8.27;;;20.00;82.60;;;;;;5141365;27;20457;-75
2022/06/24 04:50:08;;;;;;;10.63;9.80;;;20.00;82.70;;;;;;5141216;27;20449;-76
2022/06/24 04:52:38;;;;;;;9.40;8.70;;;20.00;82.80;;;;;;5141295;27;20442;-75
2022/06/24 04:55:08;;;;;;;7.40;6.77;;;20.00;82.90;;;;;;5122455;27;20505;-76
2022/06/24 04:57:38;;;;;;;7.10;6.50;;;20.10;83.10;;;;;;5122619;27;20462;-75
2022/06/24 05:00:09;;;;;;;7.23;6.73;;;20.10;83.20;;;;;;5122754;27;20499;-76
2022/06/24 05:02:39;;;;;;;6.27;5.87;;;20.10;83.30;;;;;;5122719;27;20473;-75
2022/06/24 05:05:08;;;;;;;8.17;7.40;;;20.20;83.40;;;;;;5141548;27;20438;-77
2022/06/24 05:07:36;;;;;;;7.20;6.60;;;20.20;83.50;;;;;;5141085;27;20450;-75
2022/06/24 05:10:07;;;;;;;7.00;6.50;;;20.20;83.50;;;;;;5141262;27;20461;-77
2022/06/24 05:12:36;;;;;;;6.83;6.23;;;20.30;83.60;;;;;;5141333;27;20839;-75
2022/06/24 05:15:04;;;;;;;6.73;6.20;;;20.30;83.70;;;;;;5140797;27;20523;-76
2022/06/24 05:17:33;;;;;;;6.53;6.03;;;20.40;83.80;;;;;;5122270;27;20468;-76
2022/06/24 05:20:03;;;;;;;7.30;6.60;;;20.50;84.00;;;;;;5140739;27;20481;-76
2022/06/24 05:22:31;;;;;;;7.10;6.40;;;20.50;84.00;;;;;;5141338;27;20876;-80
2022/06/24 05:25:01;;;;;;;6.60;6.10;;;20.60;84.10;;;;;;5143679;27;20426;-78
2022/06/24 05:27:30;;;;;;;7.40;6.80;;;20.60;84.10;;;;;;5124685;27;20465;-80
2022/06/24 05:29:59;;;;;;;6.80;6.17;;;20.70;84.20;;;;;;5148026;27;20468;-78
2022/06/24 05:32:27;;;;;;;6.73;6.10;;;20.70;84.10;;;;;;5139421;27;20446;-77
2022/06/24 05:34:56;;;;;;;6.70;6.10;;;20.80;84.20;;;;;;5156756;27;20468;-77
2022/06/24 05:37:24;;;;;;;8.00;7.40;;;20.90;84.30;;;;;;5124516;27;20824;-79
2022/06/24 05:39:52;;;;;;;7.70;7.00;;;21.00;84.30;;;;;;5124069;27;20484;-79
2022/06/24 05:42:21;;;;;;;7.67;6.97;;;21.20;84.40;;;;;;5142071;27;20440;-79
2022/06/24 05:44:52;;;;;;;7.90;6.83;;;21.30;84.40;;;;;;5124074;27;20451;-79
2022/06/24 05:47:20;;;;;;;7.57;6.57;;;21.50;84.40;;;;;;5149193;27;20457;-79
2022/06/24 05:49:48;;;;;;;6.47;5.97;;;21.70;84.30;;;;;;5151197;27;20506;-79
2022/06/24 05:55:02;;;;;;;6.70;6.20;;;21.90;84.40;;;;;;5133901;27;20451;-79
2022/06/24 05:55:04;;;;;;;6.73;6.10;;;22.10;84.40;;;;;;5150243;27;20489;-80
2022/06/24 05:57:32;;;;;;;5.90;5.50;;;22.40;84.40;;;;;;5122533;27;20462;-78
2022/06/24 06:00:02;;;;;;;6.40;6.00;;;22.60;84.20;;;;;;5122710;27;20447;-79
2022/06/24 06:02:32;;;;;;;6.13;5.63;;;22.90;84.10;;;;;;5140949;27;20450;-80
2022/06/24 06:05:04;;;;;;;6.03;5.53;;;23.10;83.90;;;;;;5140398;27;20775;-79
2022/06/24 06:07:32;;;;;;;7.03;5.63;;;23.40;83.80;;;;;;5121672;27;20900;-79
2022/06/24 06:10:01;;;;;;;6.30;5.90;;;23.60;83.60;;;;;;5140609;27;20469;-79
2022/06/24 06:12:29;;;;;;;6.87;6.37;;;23.80;83.70;;;;;;5141180;27;20525;-79
2022/06/24 06:14:57;;;;;;;6.57;6.07;;;24.00;83.40;;;;;;5122473;27;20490;-79
2022/06/24 06:17:27;;;;;;;6.67;6.23;;;24.20;83.10;;;;;;5121729;27;20504;-79
2022/06/24 06:19:55;;;;;;;6.93;6.43;;;24.40;83.00;;;;;;5122127;27;20450;-81
2022/06/24 06:22:23;;;;;;;8.00;6.00;;;24.60;83.00;;;;;;5141832;27;20438;-79
2022/06/24 06:24:52;;;;;;;6.90;6.40;;;24.90;82.80;;;;;;5122923;27;20466;-79
2022/06/24 06:27:20;;;;;;;6.33;5.83;;;25.10;82.50;;;;;;5141090;27;20455;-80
2022/06/24 06:29:48;;;;;;;7.30;6.27;;;25.30;82.50;;;;;;5122817;27;20785;-79
2022/06/24 06:32:16;;;;;;;5.83;5.33;;;25.50;82.60;;;;;;5123341;27;20455;-79
2022/06/24 06:34:49;;;;;;;5.77;5.33;;;25.80;82.20;;;;;;5122959;27;20795;-79
2022/06/24 06:37:17;;;;;;;7.80;6.70;;;25.80;81.90;;;;;;5141527;27;20446;-81
2022/06/24 06:39:45;;;;;;;8.37;6.23;;;25.80;81.90;;;;;;5122590;27;20446;-79
2022/06/24 06:42:13;;;;;;;6.03;5.43;;;25.80;81.70;;;;;;5122688;27;20529;-79
2022/06/24 06:44:45;;;;;;;6.30;5.80;;;25.70;81.50;;;;;;5123058;27;20450;-80
2022/06/24 06:47:14;;;;;;;6.77;6.00;;;25.70;81.30;;;;;;5123553;27;20460;-81
2022/06/24 06:49:42;;;;;;;6.30;5.80;;;25.60;81.20;;;;;;5122183;27;20480;-80
2022/06/24 06:52:11;;;;;;;7.20;6.50;;;25.60;81.20;;;;;;5123362;27;20518;-79
2022/06/24 06:54:40;;;;;;;7.10;5.90;;;25.70;81.30;;;;;;5123362;27;21019;-81
2022/06/24 06:57:08;;;;;;;7.07;6.47;;;25.70;81.30;;;;;;5124083;27;20454;-81
2022/06/24 06:59:36;;;;;;;7.07;6.20;;;25.80;81.40;;;;;;5121053;27;20541;-81
2022/06/24 07:02:05;;;;;;;7.23;6.60;;;25.80;81.40;;;;;;5141108;27;20503;-80
2022/06/24 07:04:33;;;;;;;6.83;6.23;;;25.90;81.60;;;;;;5140324;27;20473;-80
2022/06/24 07:07:04;;;;;;;6.37;5.77;;;26.20;82.00;;;;;;5122581;27;20465;-80
2022/06/24 07:09:33;;;;;;;8.63;5.80;;;26.40;82.30;;;;;;5122065;27;20438;-80
2022/06/24 07:12:01;;;;;;;7.17;6.57;;;26.60;82.20;;;;;;5123307;27;20487;-80
2022/06/24 07:14:29;;;;;;;7.50;6.67;;;26.80;81.90;;;;;;5142516;27;20810;-81
2022/06/24 07:16:58;;;;;;;7.83;7.03;;;26.90;81.90;;;;;;5123408;27;20515;-80
2022/06/24 07:19:26;;;;;;;7.20;6.50;;;27.10;82.00;;;;;;5142391;27;20430;-79
2022/06/24 07:21:56;;;;;;;9.83;7.00;;;27.30;82.00;;;;;;5123119;27;20495;-80
2022/06/24 07:24:24;;;;;;;6.30;5.80;;;27.40;82.00;;;;;;5123127;27;20474;-80
2022/06/24 07:26:57;;;;;;;6.33;5.70;;;27.40;82.10;;;;;;5122235;27;20442;-80
2022/06/24 07:29:26;;;;;;;6.43;5.83;;;27.50;82.30;;;;;;5122710;27;20533;-80
2022/06/24 07:32:00;;;;;;;7.13;6.27;;;27.70;82.40;;;;;;5142942;27;20414;-81
2022/06/24 07:34:30;;;;;;;7.57;6.30;;;27.90;82.60;;;;;;5124824;27;20463;-80
2022/06/24 07:37:01;;;;;;;6.80;6.10;;;28.00;82.70;;;;;;5124052;27;20531;-81
2022/06/24 07:39:30;;;;;;;7.07;6.47;;;28.10;82.90;;;;;;5124157;27;20454;-80
2022/06/24 07:41:59;;;;;;;7.73;7.03;;;28.20;83.20;;;;;;5143336;27;20515;-81
2022/06/24 07:44:27;;;;;;;7.33;6.63;;;28.30;83.30;;;;;;5125290;28;20454;-80
2022/06/24 07:46:56;;;;;;;9.20;7.47;;;28.50;83.30;;;;;;5125561;27;20528;-82
2022/06/24 07:49:24;;;;;;;11.70;7.30;;;28.50;83.50;;;;;;5125162;27;20492;-81
2022/06/24 07:51:53;;;;;;;8.63;7.57;;;28.60;83.90;;;;;;5123285;28;20450;-81
2022/06/24 07:54:22;;;;;;;8.77;7.97;;;28.60;83.90;;;;;;5142655;27;20434;-81
2022/06/24 07:56:59;;;;;;;8.90;8.03;;;28.70;84.10;;;;;;5123629;28;20471;-81
2022/06/24 07:59:30;;;;;;;10.10;8.30;;;28.80;84.30;;;;;;5124604;27;20466;-82
2022/06/24 08:02:01;;;;;;;10.20;9.20;;;28.90;84.70;;;;;;5124265;27;20533;-82
2022/06/24 08:04:29;;;;;;;10.80;9.80;;;29.00;85.00;;;;;;5142047;27;20422;-81
2022/06/24 08:07:06;;;;;;;12.67;11.57;;;29.10;85.40;;;;;;5141624;27;20429;-79
2022/06/24 08:09:36;;;;;;;10.27;9.27;;;29.20;85.70;;;;;;5123596;28;20489;-80
2022/06/24 08:12:08;;;;;;;11.70;9.97;;;29.30;86.20;;;;;;5123832;27;20445;-81
2022/06/24 08:14:37;;;;;;;10.90;9.90;;;29.40;86.60;;;;;;5142859;27;20427;-81
2022/06/24 08:17:06;;;;;;;14.10;12.63;;;29.50;87.00;;;;;;5142359;28;20454;-80
2022/06/24 08:19:35;;;;;;;13.37;12.17;;;29.60;87.10;;;;;;5123397;28;21024;-81
2022/06/24 08:22:03;;;;;;;15.10;13.60;;;29.70;87.00;;;;;;5142136;28;20438;-81
2022/06/24 08:24:32;;;;;;;13.13;12.07;;;29.80;87.20;;;;;;5123359;28;20884;-81
2022/06/24 08:27:09;;;;;;;15.30;13.90;;;29.90;87.20;;;;;;5141722;28;20813;-81
2022/06/24 08:29:41;;;;;;;15.00;13.60;;;29.90;87.00;;;;;;5124137;28;20442;-80
2022/06/24 08:32:09;;;;;;;12.40;11.40;;;29.90;86.90;;;;;;5124581;28;20470;-82
2022/06/24 08:34:39;;;;;;;14.73;13.23;;;29.90;87.10;;;;;;5125315;28;20446;-81
2022/06/24 08:37:27;;;;;;;14.77;13.40;;;30.00;87.10;;;;;;5125725;28;20470;-82
2022/06/24 08:39:55;;;;;;;14.00;12.27;;;30.10;87.20;;;;;;5126410;28;20530;-81
2022/06/24 08:42:29;;;;;;;12.27;11.17;;;30.10;87.20;;;;;;5146808;28;20498;-82
2022/06/24 08:45:03;;;;;;;12.80;11.50;;;30.00;87.30;;;;;;5126741;28;20462;-80
2022/06/24 08:47:31;;;;;;;11.10;10.20;;;29.90;87.40;;;;;;5124338;28;20470;-81
2022/06/24 08:50:00;;;;;;;9.53;8.70;;;29.90;87.20;;;;;;5144573;28;20498;-82
2022/06/24 08:52:28;;;;;;;9.47;8.73;;;29.80;86.50;;;;;;5145983;28;20431;-81
2022/06/24 08:55:00;;;;;;;9.10;8.20;;;29.80;86.30;;;;;;5122348;28;20454;-82
2022/06/24 08:57:28;;;;;;;11.20;10.20;;;29.90;86.40;;;;;;5127197;28;20474;-82
2022/06/24 08:59:57;;;;;;;11.60;10.60;;;29.90;86.00;;;;;;5144678;28;20895;-81
2022/06/24 09:02:26;;;;;;;10.20;9.30;;;29.90;85.90;;;;;;5143874;28;20455;-81
2022/06/24 09:05:00;;;;;;;10.77;9.77;;;29.90;86.00;;;;;;5130486;27;20433;-81
2022/06/24 09:07:33;;;;;;;11.23;10.23;;;29.80;85.90;;;;;;5131255;27;20458;-81
2022/06/24 09:10:04;;;;;;;11.57;10.40;;;29.80;85.90;;;;;;5132193;27;20441;-79
2022/06/24 09:12:38;;;;;;;10.50;9.60;;;29.70;85.90;;;;;;5152662;27;20411;-79
2022/06/24 09:15:08;;;;;;;13.40;12.30;;;29.70;86.00;;;;;;5129797;27;20434;-79
2022/06/24 09:17:39;;;;;;;12.23;11.00;;;29.60;86.00;;;;;;5129885;27;20482;-81
2022/06/24 09:20:12;;;;;;;11.40;10.20;;;29.50;86.50;;;;;;5146861;27;20419;-82
2022/06/24 09:23:05;;;;;;;12.83;11.83;;;29.40;86.80;;;;;;5146689;27;20525;-80
2022/06/24 09:25:45;;;;;;;11.63;10.70;;;29.40;87.10;;;;;;5126375;27;20922;-81
2022/06/24 09:28:21;;;;;;;12.87;11.77;;;29.30;87.10;;;;;;5128290;27;20484;-83
2022/06/24 09:30:49;;;;;;;16.70;14.97;;;29.30;87.40;;;;;;5127454;27;20800;-80
2022/06/24 09:33:23;;;;;;;12.60;11.67;;;29.30;87.50;;;;;;5148289;27;20442;-81
2022/06/24 09:36:01;;;;;;;11.30;10.20;;;29.20;87.60;;;;;;5149101;27;20448;-81
2022/06/24 09:38:30;;;;;;;12.90;11.80;;;29.20;87.70;;;;;;5148087;27;20465;-80
2022/06/24 09:41:04;;;;;;;11.90;10.87;;;29.20;87.90;;;;;;5127767;27;20461;-80
2022/06/24 09:43:33;;;;;;;12.20;11.10;;;29.20;88.20;;;;;;5126148;27;20990;-81
2022/06/24 09:46:04;;;;;;;11.33;10.53;;;29.20;88.10;;;;;;5126776;27;20495;-82
2022/06/24 09:48:37;;;;;;;12.73;11.60;;;29.20;88.00;;;;;;5145792;27;20458;-82
2022/06/24 09:51:07;;;;;;;11.30;10.40;;;29.20;87.90;;;;;;5129233;27;20802;-80
2022/06/24 09:53:40;;;;;;;10.17;9.37;;;29.20;87.90;;;;;;5145015;27;20460;-80
2022/06/24 09:56:10;;;;;;;10.47;9.40;;;29.20;87.60;;;;;;5127395;27;20487;-81
2022/06/24 09:58:39;;;;;;;10.83;9.90;;;29.10;87.30;;;;;;5142223;27;20478;-80
2022/06/24 10:01:06;;;;;;;9.80;8.80;;;29.00;87.10;;;;;;5145246;27;20437;-81
2022/06/24 10:03:41;;;;;;;10.00;9.10;;;28.90;87.30;;;;;;5127536;27;20448;-80
2022/06/24 10:06:23;;;;;;;11.70;10.67;;;28.90;87.60;;;;;;5126699;27;20457;-80
2022/06/24 10:08:55;;;;;;;10.63;9.70;;;28.80;87.70;;;;;;5126652;27;20570;-81
2022/06/24 10:11:38;;;;;;;10.13;9.13;;;28.70;87.70;;;;;;5126652;27;20946;-81
2022/06/24 10:14:12;;;;;;;10.40;9.40;;;28.60;87.80;;;;;;5126493;27;20509;-80
2022/06/24 10:16:43;;;;;;;8.90;8.17;;;28.60;87.90;;;;;;5127539;27;20450;-80
2022/06/24 10:19:14;;;;;;;9.10;8.20;;;28.50;88.00;;;;;;5129282;27;20465;-82
2022/06/24 10:22:02;;;;;;;;;;;;;;;;;;;;;
2022/06/24 10:24:40;;;;;;;9.13;8.43;;;28.60;88.50;;;;;;5143492;27;20484;-82
2022/06/24 10:27:09;;;;;;;8.13;7.53;;;28.60;88.50;;;;;;5134012;27;20557;-81
2022/06/24 10:29:37;;;;;;;8.50;7.80;;;28.70;88.40;;;;;;5151494;27;20486;-81
2022/06/24 10:32:09;;;;;;;8.30;7.60;;;28.70;88.10;;;;;;5127885;27;20451;-82
2022/06/24 10:34:46;;;;;;;6.73;6.20;;;28.70;88.00;;;;;;5128692;27;20442;-82
2022/06/24 10:37:32;;;;;;;6.57;5.97;;;28.70;87.90;;;;;;5126139;27;20538;-80
2022/06/24 10:40:02;;;;;;;8.60;7.90;;;28.80;87.40;;;;;;5125458;27;20452;-82
2022/06/24 10:42:33;;;;;;;6.57;6.07;;;28.80;87.40;;;;;;5123872;27;20504;-81
2022/06/24 10:45:08;;;;;;;7.40;6.03;;;28.80;87.20;;;;;;5124635;27;20446;-84
2022/06/24 10:47:41;;;;;;;7.57;6.43;;;28.80;87.10;;;;;;5124576;27;20519;-80
2022/06/24 10:50:14;;;;;;;6.30;5.90;;;28.80;87.00;;;;;;5126387;27;20435;-82
2022/06/24 10:53:06;;;;;;;6.40;5.80;;;28.70;86.90;;;;;;5144387;27;20435;-81
2022/06/24 10:55:44;;;;;;;6.37;5.83;;;28.70;87.50;;;;;;5123699;27;20458;-80
2022/06/24 10:58:16;;;;;;;5.73;5.23;;;28.70;86.90;;;;;;5124138;27;20915;-82
2022/06/24 11:00:57;;;;;;;2.70;2.47;;;28.70;86.90;;;;;;5125636;27;20431;-82
2022/06/24 11:03:36;;;;;;;3.30;2.17;;;28.60;86.30;;;;;;5124652;27;20434;-80
2022/06/24 11:06:09;;;;;;;6.00;2.30;;;28.50;85.60;;;;;;5141866;27;20506;-81
2022/06/24 11:08:39;;;;;;;3.40;2.60;;;28.50;85.30;;;;;;5124420;27;20939;-82
2022/06/24 11:11:07;;;;;;;2.90;2.40;;;28.50;85.10;;;;;;5124143;27;20482;-81
2022/06/24 11:13:36;;;;;;;2.77;2.50;;;28.40;84.90;;;;;;5142880;27;20439;-81
2022/06/24 11:16:09;;;;;;;4.63;2.83;;;28.40;84.80;;;;;;5144433;27;20452;-80
2022/06/24 11:18:38;;;;;;;4.37;2.57;;;28.40;85.00;;;;;;5122268;27;20474;-80
2022/06/24 11:21:17;;;;;;;4.53;2.90;;;28.30;84.90;;;;;;5121778;27;20430;-82
2022/06/24 11:23:54;;;;;;;2.70;2.30;;;28.30;85.20;;;;;;5122721;27;20454;-80
2022/06/24 11:26:22;;;;;;;3.10;2.33;;;28.20;85.20;;;;;;5122279;27;20464;-81
2022/06/24 11:28:52;;;;;;;2.70;2.03;;;28.20;85.50;;;;;;5121079;27;20494;-81
2022/06/24 11:31:22;;;;;;;3.23;2.10;;;28.30;85.50;;;;;;5142186;27;20444;-81
2022/06/24 11:33:52;;;;;;;3.60;2.87;;;28.20;85.30;;;;;;5123971;27;20545;-80
2022/06/24 11:36:23;;;;;;;2.27;2.07;;;28.30;85.40;;;;;;5141142;27;20469;-80
2022/06/24 11:38:56;;;;;;;3.70;1.77;;;28.30;85.50;;;;;;5123061;27;20967;-81
2022/06/24 11:41:26;;;;;;;4.93;1.73;;;28.30;85.60;;;;;;5123183;27;20434;-79
2022/06/24 11:44:15;;;;;;;2.53;1.70;;;28.30;85.50;;;;;;5122390;28;20518;-79
2022/06/24 11:46:50;;;;;;;6.87;2.23;;;28.20;85.70;;;;;;5140759;27;20545;-80
2022/06/24 11:49:21;;;;;;;2.97;1.97;;;28.20;86.50;;;;;;5142055;27;20429;-81
2022/06/24 11:51:51;;;;;;;3.83;2.10;;;28.20;85.90;;;;;;5118970;27;20438;-77
2022/06/24 11:54:20;;;;;;;3.30;2.40;;;28.10;85.90;;;;;;5120859;27;20548;-77
2022/06/24 11:56:48;;;;;;;3.10;1.70;;;28.00;85.80;;;;;;5141757;27;20499;-78
2022/06/24 11:59:21;;;;;;;3.40;2.00;;;28.00;85.90;;;;;;5142423;27;21049;-77
2022/06/24 12:01:51;;;;;;;2.77;1.80;;;27.90;86.30;;;;;;5124331;27;20445;-78
2022/06/24 12:04:23;;;;;;;1.93;1.50;;;27.80;86.40;;;;;;5142197;27;20418;-77
2022/06/24 12:07:03;;;;;;;3.60;2.17;;;27.70;86.40;;;;;;5126082;27;20487;-78
2022/06/24 12:09:32;;;;;;;3.33;2.30;;;27.60;86.70;;;;;;5128731;27;20498;-77
2022/06/24 12:12:09;;;;;;;2.40;1.90;;;27.50;86.80;;;;;;5127217;27;20541;-77
2022/06/24 12:14:38;;;;;;;3.10;1.70;;;27.50;86.80;;;;;;5143682;27;20501;-77
2022/06/24 12:17:08;;;;;;;3.17;2.10;;;27.50;86.90;;;;;;5146225;27;20638;-77
2022/06/24 12:19:39;;;;;;;2.90;1.70;;;27.50;87.10;;;;;;5146792;28;20485;-78
2022/06/24 12:22:11;;;;;;;4.13;1.80;;;27.50;87.30;;;;;;5148526;28;20423;-78
2022/06/24 12:24:40;;;;;;;2.93;1.93;;;27.50;87.50;;;;;;5124093;28;20469;-78
2022/06/24 12:27:10;;;;;;;4.00;1.97;;;27.60;87.50;;;;;;5123728;28;20447;-79
2022/06/24 12:29:39;;;;;;;2.47;1.73;;;27.60;87.60;;;;;;5141328;28;20531;-78
2022/06/24 12:32:14;;;;;;;3.77;1.97;;;27.60;87.80;;;;;;5124360;28;20602;-77
2022/06/24 12:34:54;;;;;;;3.20;1.93;;;27.60;87.90;;;;;;5144680;28;20429;-78
2022/06/24 12:37:24;;;;;;;4.10;2.23;;;27.70;88.00;;;;;;5146153;28;20485;-77
2022/06/24 12:39:53;;;;;;;4.10;2.10;;;27.70;88.20;;;;;;5122715;27;20466;-78
2022/06/24 12:42:24;;;;;;;4.30;2.00;;;27.70;88.10;;;;;;5146809;27;20947;-77
2022/06/24 12:44:55;;;;;;;2.27;1.90;;;27.80;88.20;;;;;;5131490;27;20435;-78
2022/06/24 12:53:00;;;;;;;2.10;1.80;;;27.80;88.20;;;;;;5144788;27;20772;-78
2022/06/24 12:55:30;;;;;;;2.77;1.90;;;27.90;88.20;;;;;;5123768;27;20499;-78
2022/06/24 12:57:58;;;;;;;4.20;1.60;;;27.90;88.30;;;;;;5141530;27;20477;-78
2022/06/24 13:00:27;;;;;;;2.40;1.60;;;27.90;88.40;;;;;;5122881;27;20954;-79
2022/06/24 13:02:58;;;;;;;4.90;2.27;;;28.00;88.50;;;;;;5122752;27;20488;-76
2022/06/24 13:05:28;;;;;;;2.20;1.87;;;28.10;88.40;;;;;;5140718;27;20517;-78
2022/06/24 13:07:58;;;;;;;2.73;2.37;;;28.20;88.20;;;;;;5140116;27;21081;-76
2022/06/24 13:10:26;;;;;;;2.83;1.77;;;28.20;88.10;;;;;;5121802;27;20450;-78
2022/06/24 13:12:54;;;;;;;5.50;2.93;;;28.10;88.10;;;;;;5140558;27;20484;-79
2022/06/24 13:15:23;;;;;;;3.67;2.93;;;28.20;88.20;;;;;;5121628;27;20887;-78
2022/06/24 13:17:51;;;;;;;2.50;2.17;;;28.20;88.20;;;;;;5140260;27;20470;-78